Time;durP1;ratioP1;P1;durP2;ratioP2;P2;SDS_P1;SDS_P2;PMS_P1;PMS_P2;Temp;Humidity;BMP_temperature;BMP_pressure;BME280_temperature;BME280_humidity;BME280_pressure;Samples;Min_cycle;Max_cycle;Signal;HPM_P1;HPM_P2
2023/07/07 00:09:05;;;;;;;5.05;2.80;;;;;;;;;;21008969;28;20045;-67
2023/07/07 00:19:09;;;;;;;6.05;2.25;;;;;;;;;;21007306;28;20401;-68
2023/07/07 00:29:10;;;;;;;8.75;2.33;;;;;;;;;;21007634;28;20110;-67
2023/07/07 00:39:11;;;;;;;4.32;2.50;;;;;;;;;;21005842;28;20418;-67
2023/07/07 00:49:15;;;;;;;4.85;2.53;;;;;;;;;;21005330;28;20037;-67
2023/07/07 00:59:21;;;;;;;5.22;2.15;;;;;;;;;;21005547;28;20044;-67
2023/07/07 01:09:22;;;;;;;;;;;;;;;;;;21005150;28;20048;-68
2023/07/07 01:19:40;;;;;;;8.52;2.80;;;;;;;;;;21003914;28;19920;-67
2023/07/07 01:29:48;;;;;;;5.75;2.40;;;;;;;;;;21001482;28;20135;-68
2023/07/07 01:39:50;;;;;;;10.32;3.08;;;;;;;;;;21000782;28;20131;-68
2023/07/07 01:49:56;;;;;;;10.90;3.97;;;;;;;;;;20999963;28;20051;-68
2023/07/07 01:59:57;;;;;;;7.78;2.55;;;;;;;;;;20999211;28;20045;-67
2023/07/07 02:09:59;;;;;;;7.95;3.10;;;;;;;;;;20999932;28;20510;-68
2023/07/07 02:20:00;;;;;;;5.07;2.63;;;;;;;;;;20997746;28;20038;-68
2023/07/07 02:30:01;;;;;;;5.20;3.25;;;;;;;;;;20997233;28;20091;-67
2023/07/07 02:40:03;;;;;;;7.90;3.30;;;;;;;;;;20998581;28;20131;-68
2023/07/07 02:50:05;;;;;;;6.18;3.42;;;;;;;;;;20997484;28;20375;-69
2023/07/07 03:00:09;;;;;;;6.38;3.63;;;;;;;;;;20996842;28;20068;-67
2023/07/07 03:10:10;;;;;;;8.40;4.88;;;;;;;;;;20994600;28;20127;-68
2023/07/07 03:20:11;;;;;;;8.07;3.70;;;;;;;;;;21011219;28;20080;-68
2023/07/07 03:30:12;;;;;;;5.95;3.35;;;;;;;;;;21011524;28;20053;-68
2023/07/07 03:40:13;;;;;;;6.43;3.60;;;;;;;;;;21009728;28;20106;-67
2023/07/07 03:50:14;;;;;;;5.40;3.38;;;;;;;;;;21009452;28;20036;-68
2023/07/07 04:00:16;;;;;;;8.15;3.80;;;;;;;;;;21009983;28;20147;-68
2023/07/07 04:10:17;;;;;;;7.65;3.60;;;;;;;;;;21008724;28;20490;-68
2023/07/07 04:20:18;;;;;;;5.82;3.70;;;;;;;;;;21007056;28;20101;-68
2023/07/07 04:30:19;;;;;;;7.25;3.60;;;;;;;;;;21006014;28;20087;-67
2023/07/07 04:40:20;;;;;;;5.38;3.33;;;;;;;;;;21007982;28;20052;-67
2023/07/07 04:50:21;;;;;;;7.70;4.05;;;;;;;;;;21006125;28;20048;-67
2023/07/07 05:00:23;;;;;;;8.18;3.75;;;;;;;;;;21005329;28;20090;-68
2023/07/07 05:10:24;;;;;;;6.45;3.15;;;;;;;;;;21003319;28;20040;-67
2023/07/07 05:20:25;;;;;;;10.52;7.43;;;;;;;;;;21003766;28;20494;-68
2023/07/07 05:30:26;;;;;;;5.80;3.45;;;;;;;;;;21002659;28;20493;-68
2023/07/07 05:40:28;;;;;;;5.70;3.70;;;;;;;;;;21003766;28;20061;-67
2023/07/07 05:50:29;;;;;;;7.22;3.72;;;;;;;;;;20999517;28;20045;-68
2023/07/07 06:00:31;;;;;;;6.97;3.35;;;;;;;;;;20999642;28;20044;-67
2023/07/07 06:10:32;;;;;;;8.38;3.22;;;;;;;;;;20999190;28;20486;-67
2023/07/07 06:20:33;;;;;;;7.60;3.38;;;;;;;;;;20997289;28;20051;-68
2023/07/07 06:30:35;;;;;;;6.15;3.40;;;;;;;;;;20996693;28;20041;-68
2023/07/07 06:40:36;;;;;;;8.05;3.60;;;;;;;;;;20996315;28;20052;-68
2023/07/07 06:50:40;;;;;;;5.78;3.33;;;;;;;;;;20996190;28;20041;-69
2023/07/07 07:00:42;;;;;;;6.05;3.60;;;;;;;;;;20996642;28;20055;-68
2023/07/07 07:10:43;;;;;;;5.35;3.15;;;;;;;;;;20996626;28;20087;-68
2023/07/07 07:20:48;;;;;;;5.45;2.85;;;;;;;;;;20995636;28;20067;-68
2023/07/07 07:30:50;;;;;;;6.15;3.10;;;;;;;;;;20994059;28;20048;-67
2023/07/07 07:40:52;;;;;;;9.13;3.10;;;;;;;;;;20993322;28;20080;-68
2023/07/07 07:50:53;;;;;;;4.88;3.35;;;;;;;;;;20994657;28;20051;-67
2023/07/07 08:00:54;;;;;;;4.82;3.20;;;;;;;;;;21001658;28;20186;-69
2023/07/07 08:10:55;;;;;;;5.07;2.75;;;;;;;;;;21009078;28;20470;-68
2023/07/07 08:20:56;;;;;;;5.93;3.42;;;;;;;;;;21008509;28;20040;-68
2023/07/07 08:30:59;;;;;;;5.68;3.00;;;;;;;;;;21006037;28;20055;-68
2023/07/07 08:41:00;;;;;;;6.15;3.15;;;;;;;;;;21008121;28;20065;-68
2023/07/07 08:51:04;;;;;;;8.38;3.22;;;;;;;;;;21005532;28;20040;-67
2023/07/07 09:01:05;;;;;;;5.95;3.17;;;;;;;;;;21003543;28;20044;-68
2023/07/07 09:11:06;;;;;;;10.32;3.30;;;;;;;;;;21002928;28;20134;-69
2023/07/07 09:21:23;;;;;;;6.15;2.83;;;;;;;;;;21002830;28;20140;-68
2023/07/07 09:31:28;;;;;;;4.97;2.80;;;;;;;;;;21002229;28;20083;-69
2023/07/07 09:41:32;;;;;;;8.20;3.33;;;;;;;;;;21001716;28;20041;-69
2023/07/07 09:51:33;;;;;;;7.47;3.15;;;;;;;;;;21000794;28;20505;-70
2023/07/07 10:01:35;;;;;;;3.78;2.90;;;;;;;;;;20998678;28;20078;-70
2023/07/07 10:11:37;;;;;;;6.72;3.25;;;;;;;;;;20999257;28;20507;-69
2023/07/07 10:29:11;;;;;;;7.65;3.70;;;;;;;;;;20983139;28;20495;-72
2023/07/07 10:39:13;;;;;;;5.18;2.88;;;;;;;;;;20984936;28;20390;-71
2023/07/07 10:49:15;;;;;;;8.73;2.88;;;;;;;;;;20984172;28;20178;-71
2023/07/07 10:59:38;;;;;;;7.15;2.92;;;;;;;;;;20981268;28;20044;-69
2023/07/07 11:09:46;;;;;;;7.00;2.63;;;;;;;;;;20981959;28;20047;-69
2023/07/07 11:19:59;;;;;;;7.35;2.45;;;;;;;;;;20980090;28;20057;-70
2023/07/07 11:30:13;;;;;;;4.00;2.60;;;;;;;;;;20980160;28;20624;-70
2023/07/07 11:40:29;;;;;;;9.40;2.83;;;;;;;;;;20926743;28;20056;-69
2023/07/07 11:50:43;;;;;;;4.97;2.60;;;;;;;;;;20922182;28;20049;-70
2023/07/07 12:00:52;;;;;;;4.18;2.47;;;;;;;;;;20922374;28;20049;-69
2023/07/07 12:10:56;;;;;;;7.32;2.95;;;;;;;;;;20921183;28;20051;-69
2023/07/07 12:21:21;;;;;;;12.45;5.20;;;;;;;;;;20921096;28;20460;-70
2023/07/07 12:31:24;;;;;;;7.80;3.83;;;;;;;;;;20920520;28;20053;-70
2023/07/07 12:41:26;;;;;;;13.18;6.93;;;;;;;;;;20919148;28;20048;-70
2023/07/07 12:51:29;;;;;;;8.73;2.80;;;;;;;;;;20918651;28;20045;-69
2023/07/07 13:01:38;;;;;;;8.18;2.38;;;;;;;;;;20918491;28;20080;-69
2023/07/07 13:11:40;;;;;;;10.55;2.55;;;;;;;;;;20917856;28;20454;-70
2023/07/07 13:21:42;;;;;;;6.55;2.92;;;;;;;;;;20915977;28;20072;-69
2023/07/07 13:31:44;;;;;;;7.53;2.42;;;;;;;;;;20916421;28;20048;-71
2023/07/07 13:41:46;;;;;;;8.88;2.60;;;;;;;;;;20915197;28;20041;-70
2023/07/07 13:51:52;;;;;;;7.75;2.30;;;;;;;;;;20913265;28;20453;-70
2023/07/07 14:01:54;;;;;;;8.55;2.50;;;;;;;;;;20913827;28;20083;-69
2023/07/07 14:11:57;;;;;;;5.35;2.45;;;;;;;;;;20913908;28;20045;-70
2023/07/07 14:21:58;;;;;;;7.72;2.58;;;;;;;;;;20912432;28;20127;-70
2023/07/07 14:32:04;;;;;;;5.05;2.25;;;;;;;;;;20912595;28;20075;-69
2023/07/07 14:42:31;;;;;;;4.10;2.10;;;;;;;;;;20911119;28;20044;-71
2023/07/07 14:52:32;;;;;;;8.40;2.78;;;;;;;;;;20910009;28;20398;-69
2023/07/07 15:02:35;;;;;;;6.72;1.98;;;;;;;;;;20911758;28;20041;-70
2023/07/07 15:12:36;;;;;;;5.28;2.35;;;;;;;;;;20922157;28;20532;-71
2023/07/07 15:22:37;;;;;;;11.88;5.78;;;;;;;;;;20925419;28;20064;-69
2023/07/07 15:32:40;;;;;;;5.05;2.50;;;;;;;;;;20925904;28;20437;-70
2023/07/07 15:42:41;;;;;;;7.60;2.53;;;;;;;;;;20925447;28;20044;-71
2023/07/07 15:52:42;;;;;;;4.05;2.30;;;;;;;;;;20924030;28;20077;-71
2023/07/07 16:02:44;;;;;;;5.78;2.67;;;;;;;;;;20923816;28;20436;-71
2023/07/07 16:12:45;;;;;;;5.60;2.40;;;;;;;;;;20922996;28;20551;-70
2023/07/07 16:22:47;;;;;;;3.42;2.05;;;;;;;;;;20919829;28;20087;-70
2023/07/07 16:32:48;;;;;;;5.85;2.42;;;;;;;;;;20919129;28;20083;-70
2023/07/07 16:42:50;;;;;;;5.07;2.00;;;;;;;;;;20920110;28;20103;-64
2023/07/07 16:52:52;;;;;;;8.48;2.40;;;;;;;;;;20919309;28;20041;-64
2023/07/07 17:02:54;;;;;;;5.53;2.22;;;;;;;;;;20918413;28;20044;-66
2023/07/07 17:12:55;;;;;;;3.08;1.90;;;;;;;;;;20917251;28;20045;-66
2023/07/07 17:22:56;;;;;;;4.30;1.52;;;;;;;;;;20914972;28;20159;-64
2023/07/07 17:32:58;;;;;;;4.05;2.05;;;;;;;;;;20914731;28;20426;-62
2023/07/07 17:42:59;;;;;;;7.00;2.20;;;;;;;;;;20913516;28;20044;-62
2023/07/07 17:53:00;;;;;;;4.43;1.70;;;;;;;;;;20912696;28;20056;-67
2023/07/07 18:03:02;;;;;;;5.28;2.10;;;;;;;;;;20913044;28;20128;-64
2023/07/07 18:13:03;;;;;;;9.63;1.90;;;;;;;;;;20912696;28;20489;-66
2023/07/07 18:23:04;;;;;;;4.97;1.83;;;;;;;;;;20911345;28;20514;-66
2023/07/07 18:33:05;;;;;;;2.70;1.73;;;;;;;;;;20911758;28;20041;-66
2023/07/07 18:43:06;;;;;;;8.25;2.22;;;;;;;;;;20914963;28;20051;-73
2023/07/07 18:53:08;;;;;;;7.28;2.40;;;;;;;;;;20926621;28;20059;-67
2023/07/07 19:03:11;;;;;;;5.10;2.45;;;;;;;;;;20927454;28;20123;-67
2023/07/07 19:13:19;;;;;;;7.65;3.13;;;;;;;;;;20926685;28;20053;-67
2023/07/07 19:23:20;;;;;;;7.10;2.90;;;;;;;;;;20924066;28;20092;-67
2023/07/07 19:33:21;;;;;;;6.75;3.85;;;;;;;;;;20924995;28;20509;-66
2023/07/07 19:43:22;;;;;;;6.38;3.03;;;;;;;;;;20922766;28;20178;-67
2023/07/07 19:53:24;;;;;;;6.75;3.67;;;;;;;;;;20922319;28;20049;-66
2023/07/07 20:03:25;;;;;;;6.65;3.55;;;;;;;;;;20922328;28;20504;-66
2023/07/07 20:13:26;;;;;;;7.50;4.30;;;;;;;;;;20920127;28;20044;-65
2023/07/07 20:23:27;;;;;;;7.55;3.95;;;;;;;;;;20919480;28;20088;-66
2023/07/07 20:33:28;;;;;;;9.40;5.40;;;;;;;;;;20919543;28;20119;-66
2023/07/07 20:43:31;;;;;;;6.78;3.28;;;;;;;;;;20918765;28;20045;-66
2023/07/07 20:53:32;;;;;;;7.70;3.25;;;;;;;;;;20918211;28;20094;-65
2023/07/07 21:03:33;;;;;;;9.43;7.18;;;;;;;;;;20917248;28;20072;-65
2023/07/07 21:13:34;;;;;;;6.78;3.50;;;;;;;;;;20916324;28;20453;-67
2023/07/07 21:23:35;;;;;;;7.82;3.72;;;;;;;;;;20915672;28;20049;-64
2023/07/07 21:33:36;;;;;;;7.00;3.88;;;;;;;;;;20916051;28;20128;-66
2023/07/07 21:43:38;;;;;;;9.13;3.92;;;;;;;;;;20914060;28;20089;-66
2023/07/07 21:53:39;;;;;;;8.57;4.88;;;;;;;;;;20914796;28;20158;-65
2023/07/07 22:03:40;;;;;;;11.50;5.95;;;;;;;;;;20913919;28;20402;-66
2023/07/07 22:13:41;;;;;;;6.68;3.60;;;;;;;;;;20913853;28;20098;-65
2023/07/07 22:23:44;;;;;;;9.82;3.65;;;;;;;;;;20911132;28;20068;-64
2023/07/07 22:33:45;;;;;;;6.45;3.38;;;;;;;;;;20913115;28;20049;-66
2023/07/07 22:43:46;;;;;;;5.63;3.00;;;;;;;;;;20912920;28;20041;-66
2023/07/07 22:53:47;;;;;;;6.75;3.92;;;;;;;;;;20912739;28;20498;-65
2023/07/07 23:03:54;;;;;;;5.95;3.28;;;;;;;;;;20912300;28;20479;-66
2023/07/07 23:13:55;;;;;;;11.95;3.90;;;;;;;;;;20910516;28;20044;-65
2023/07/07 23:23:57;;;;;;;10.43;5.32;;;;;;;;;;20910714;28;20045;-65
2023/07/07 23:33:58;;;;;;;7.07;5.35;;;;;;;;;;20921885;28;20052;-66
2023/07/07 23:43:59;;;;;;;14.63;8.15;;;;;;;;;;20925117;28;20052;-66
2023/07/07 23:54:00;;;;;;;13.27;3.70;;;;;;;;;;20924444;28;20053;-66
